CheckWX is a tool to help pilots better visualize weather data.  It is not intended as a substitute for an official pre-flight weather briefing.

16:12:27 UTC

KOGB TAF
Orangeburg Municipal Airport
Orangeburg, South Carolina, USA
KOGB 221438Z 2215/2312 23010KT P6SM SCT060 FM230100 19007KT P6SM BKN100

Jul-22@
15:00 UTC

Jul-22 @ 15:00 UTC

Jul-23@
01:00 UTC

Jul-23 @ 01:00 UTC

KOGB 221438Z 2215/2312 23010KT P6SM SCT060
Wind
  • 230° at 10 KTS
Cloud Levels
  • Scattered at 6,000' AGL

Jul-23@
01:00 UTC

Jul-23 @ 01:00 UTC

Jul-23@
12:00 UTC

Jul-23 @ 12:00 UTC

FM230100 19007KT P6SM BKN100

From

From Standard forecast or significant change

Wind
  • 190° at 7 KTS
Cloud Levels
  • Broken at 10,000' AGL